sensor_id;sensor_type;location;lat;lon;timestamp;noise_LAeq;noise_LA_min;noise_LA_max;noise_LA01;noise_LA95
74292;Laerm;62687;55.738;37.516;2023-02-04T00:02:09;70.66;63.09;92.82;;
74292;Laerm;62687;55.738;37.516;2023-02-04T00:04:53;69.00;62.95;74.00;;
74292;Laerm;62687;55.738;37.516;2023-02-04T00:07:37;69.35;62.04;77.43;;
74292;Laerm;62687;55.738;37.516;2023-02-04T00:10:20;68.86;61.74;79.23;;
74292;Laerm;62687;55.738;37.516;2023-02-04T00:13:05;69.39;62.98;76.22;;
74292;Laerm;62687;55.738;37.516;2023-02-04T00:15:49;68.36;60.46;74.71;;
74292;Laerm;62687;55.738;37.516;2023-02-04T00:18:33;68.76;61.59;74.97;;
74292;Laerm;62687;55.738;37.516;2023-02-04T00:21:17;68.48;58.57;73.00;;
74292;Laerm;62687;55.738;37.516;2023-02-04T00:24:01;68.14;60.28;73.92;;
74292;Laerm;62687;55.738;37.516;2023-02-04T00:26:46;68.71;60.50;75.14;;
74292;Laerm;62687;55.738;37.516;2023-02-04T00:29:30;68.89;60.55;86.94;;
74292;Laerm;62687;55.738;37.516;2023-02-04T00:32:14;69.22;61.85;76.26;;
74292;Laerm;62687;55.738;37.516;2023-02-04T00:34:58;68.95;62.29;74.58;;
74292;Laerm;62687;55.738;37.516;2023-02-04T00:37:44;69.36;62.31;85.28;;
74292;Laerm;62687;55.738;37.516;2023-02-04T00:40:28;68.33;59.07;81.61;;
74292;Laerm;62687;55.738;37.516;2023-02-04T00:43:12;68.70;62.92;74.84;;
74292;Laerm;62687;55.738;37.516;2023-02-04T00:45:56;68.67;60.79;74.12;;
74292;Laerm;62687;55.738;37.516;2023-02-04T00:48:40;68.59;62.22;81.48;;
74292;Laerm;62687;55.738;37.516;2023-02-04T00:51:24;68.60;62.10;73.55;;
74292;Laerm;62687;55.738;37.516;2023-02-04T00:54:08;66.99;59.48;74.01;;
74292;Laerm;62687;55.738;37.516;2023-02-04T00:56:53;69.19;58.74;75.49;;
74292;Laerm;62687;55.738;37.516;2023-02-04T00:59:37;70.26;62.67;75.94;;
74292;Laerm;62687;55.738;37.516;2023-02-04T01:02:21;68.13;60.33;73.18;;
74292;Laerm;62687;55.738;37.516;2023-02-04T01:05:06;67.98;60.44;76.83;;
74292;Laerm;62687;55.738;37.516;2023-02-04T01:07:50;69.09;61.94;82.46;;
74292;Laerm;62687;55.738;37.516;2023-02-04T01:10:34;68.18;59.58;75.09;;
74292;Laerm;62687;55.738;37.516;2023-02-04T01:13:18;68.50;59.76;74.23;;
74292;Laerm;62687;55.738;37.516;2023-02-04T01:16:02;67.36;58.33;73.34;;
74292;Laerm;62687;55.738;37.516;2023-02-04T01:18:46;68.32;58.95;74.50;;
74292;Laerm;62687;55.738;37.516;2023-02-04T01:21:31;70.01;62.46;84.41;;
74292;Laerm;62687;55.738;37.516;2023-02-04T01:24:15;68.21;61.48;75.05;;
74292;Laerm;62687;55.738;37.516;2023-02-04T01:26:59;68.81;61.41;81.73;;
74292;Laerm;62687;55.738;37.516;2023-02-04T01:29:43;66.68;57.11;72.31;;
74292;Laerm;62687;55.738;37.516;2023-02-04T01:32:27;68.77;61.54;74.11;;
74292;Laerm;62687;55.738;37.516;2023-02-04T01:35:11;68.84;60.46;74.23;;
74292;Laerm;62687;55.738;37.516;2023-02-04T01:37:55;68.84;61.40;78.56;;
74292;Laerm;62687;55.738;37.516;2023-02-04T01:40:40;67.70;59.78;75.90;;
74292;Laerm;62687;55.738;37.516;2023-02-04T01:43:24;68.78;60.70;78.65;;
74292;Laerm;62687;55.738;37.516;2023-02-04T01:46:09;67.74;61.77;74.90;;
74292;Laerm;62687;55.738;37.516;2023-02-04T01:48:53;70.43;60.72;82.78;;
74292;Laerm;62687;55.738;37.516;2023-02-04T01:51:38;69.32;60.82;74.71;;
74292;Laerm;62687;55.738;37.516;2023-02-04T01:54:23;69.57;63.75;76.89;;
74292;Laerm;62687;55.738;37.516;2023-02-04T01:57:12;69.50;61.72;86.27;;
74292;Laerm;62687;55.738;37.516;2023-02-04T01:59:57;68.77;62.84;74.96;;
74292;Laerm;62687;55.738;37.516;2023-02-04T02:02:46;68.10;59.55;73.67;;
74292;Laerm;62687;55.738;37.516;2023-02-04T02:05:44;68.81;59.32;75.00;;
74292;Laerm;62687;55.738;37.516;2023-02-04T02:08:29;68.74;60.65;74.00;;
74292;Laerm;62687;55.738;37.516;2023-02-04T02:11:13;69.43;60.66;77.06;;
74292;Laerm;62687;55.738;37.516;2023-02-04T02:13:57;69.02;61.60;76.69;;
74292;Laerm;62687;55.738;37.516;2023-02-04T02:16:41;69.24;62.16;76.01;;
74292;Laerm;62687;55.738;37.516;2023-02-04T02:19:29;67.46;61.42;73.89;;
74292;Laerm;62687;55.738;37.516;2023-02-04T02:25:21;68.56;61.60;73.05;;
74292;Laerm;62687;55.738;37.516;2023-02-04T02:28:10;68.43;62.58;73.60;;
74292;Laerm;62687;55.738;37.516;2023-02-04T02:30:55;68.77;61.17;84.71;;
74292;Laerm;62687;55.738;37.516;2023-02-04T02:33:39;69.66;62.51;75.00;;
74292;Laerm;62687;55.738;37.516;2023-02-04T02:36:24;68.95;61.45;74.62;;
74292;Laerm;62687;55.738;37.516;2023-02-04T02:39:08;69.54;63.50;75.47;;
74292;Laerm;62687;55.738;37.516;2023-02-04T02:41:54;68.48;62.10;73.56;;
74292;Laerm;62687;55.738;37.516;2023-02-04T02:44:39;68.28;59.05;74.05;;
74292;Laerm;62687;55.738;37.516;2023-02-04T02:47:23;69.15;62.51;76.77;;
74292;Laerm;62687;55.738;37.516;2023-02-04T02:50:11;68.46;62.14;79.60;;
74292;Laerm;62687;55.738;37.516;2023-02-04T02:52:58;67.93;61.26;74.17;;
74292;Laerm;62687;55.738;37.516;2023-02-04T02:55:42;69.11;62.27;75.19;;
74292;Laerm;62687;55.738;37.516;2023-02-04T02:58:30;68.17;61.28;76.13;;
74292;Laerm;62687;55.738;37.516;2023-02-04T03:01:16;68.78;60.94;82.62;;
74292;Laerm;62687;55.738;37.516;2023-02-04T03:04:00;68.84;61.83;76.50;;
74292;Laerm;62687;55.738;37.516;2023-02-04T03:06:45;70.68;63.97;83.89;;
74292;Laerm;62687;55.738;37.516;2023-02-04T03:09:29;70.09;63.10;76.30;;
74292;Laerm;62687;55.738;37.516;2023-02-04T03:12:14;69.18;60.83;74.32;;
74292;Laerm;62687;55.738;37.516;2023-02-04T03:14:58;68.56;62.54;74.25;;
74292;Laerm;62687;55.738;37.516;2023-02-04T03:17:43;69.68;60.89;85.14;;
74292;Laerm;62687;55.738;37.516;2023-02-04T03:20:29;69.70;64.82;76.08;;
74292;Laerm;62687;55.738;37.516;2023-02-04T03:23:14;69.80;62.84;75.15;;
74292;Laerm;62687;55.738;37.516;2023-02-04T03:25:59;70.74;65.16;79.14;;
74292;Laerm;62687;55.738;37.516;2023-02-04T03:28:43;69.62;63.19;75.17;;
74292;Laerm;62687;55.738;37.516;2023-02-04T03:31:27;70.14;63.43;76.01;;
74292;Laerm;62687;55.738;37.516;2023-02-04T03:34:11;70.16;63.35;75.62;;
74292;Laerm;62687;55.738;37.516;2023-02-04T03:36:55;70.54;63.99;76.49;;
74292;Laerm;62687;55.738;37.516;2023-02-04T03:39:39;70.10;62.64;83.48;;
74292;Laerm;62687;55.738;37.516;2023-02-04T03:42:23;69.75;63.82;75.58;;
74292;Laerm;62687;55.738;37.516;2023-02-04T03:45:08;69.86;62.68;75.76;;
74292;Laerm;62687;55.738;37.516;2023-02-04T03:47:52;70.41;64.14;75.42;;
74292;Laerm;62687;55.738;37.516;2023-02-04T03:50:36;71.43;65.85;78.67;;
74292;Laerm;62687;55.738;37.516;2023-02-04T03:53:20;70.23;64.74;74.60;;
74292;Laerm;62687;55.738;37.516;2023-02-04T03:56:05;69.97;63.51;75.30;;
74292;Laerm;62687;55.738;37.516;2023-02-04T03:58:49;71.40;64.74;85.14;;
74292;Laerm;62687;55.738;37.516;2023-02-04T04:01:34;71.04;65.28;76.91;;
74292;Laerm;62687;55.738;37.516;2023-02-04T04:04:18;69.70;63.40;75.51;;
74292;Laerm;62687;55.738;37.516;2023-02-04T04:07:02;70.33;63.94;75.70;;
74292;Laerm;62687;55.738;37.516;2023-02-04T04:09:46;70.99;64.17;79.92;;
74292;Laerm;62687;55.738;37.516;2023-02-04T04:12:30;70.96;66.36;77.02;;
74292;Laerm;62687;55.738;37.516;2023-02-04T04:15:14;71.15;65.26;80.31;;
74292;Laerm;62687;55.738;37.516;2023-02-04T04:17:58;70.80;64.17;77.00;;
74292;Laerm;62687;55.738;37.516;2023-02-04T04:20:42;71.69;65.54;86.60;;
74292;Laerm;62687;55.738;37.516;2023-02-04T04:23:26;71.48;65.27;85.05;;
74292;Laerm;62687;55.738;37.516;2023-02-04T04:26:10;71.65;63.08;87.80;;
74292;Laerm;62687;55.738;37.516;2023-02-04T04:28:54;71.59;66.27;79.75;;
74292;Laerm;62687;55.738;37.516;2023-02-04T04:31:41;71.44;64.86;76.48;;
74292;Laerm;62687;55.738;37.516;2023-02-04T04:34:25;70.96;66.63;74.80;;
74292;Laerm;62687;55.738;37.516;2023-02-04T04:37:09;71.75;65.25;79.61;;
74292;Laerm;62687;55.738;37.516;2023-02-04T04:39:53;72.16;67.05;78.09;;
74292;Laerm;62687;55.738;37.516;2023-02-04T04:42:37;71.63;66.31;80.54;;
74292;Laerm;62687;55.738;37.516;2023-02-04T04:45:21;72.19;65.33;77.21;;
74292;Laerm;62687;55.738;37.516;2023-02-04T04:48:05;72.74;67.55;77.61;;
74292;Laerm;62687;55.738;37.516;2023-02-04T04:50:48;71.84;67.21;75.84;;
74292;Laerm;62687;55.738;37.516;2023-02-04T04:53:32;71.94;67.16;77.63;;
74292;Laerm;62687;55.738;37.516;2023-02-04T04:56:19;72.05;67.16;76.83;;
74292;Laerm;62687;55.738;37.516;2023-02-04T04:59:03;72.47;68.13;80.11;;
74292;Laerm;62687;55.738;37.516;2023-02-04T05:01:47;72.10;67.34;78.92;;
74292;Laerm;62687;55.738;37.516;2023-02-04T05:04:31;73.46;67.60;80.43;;
74292;Laerm;62687;55.738;37.516;2023-02-04T05:07:15;71.92;66.55;76.76;;
74292;Laerm;62687;55.738;37.516;2023-02-04T05:10:00;71.93;67.55;76.03;;
74292;Laerm;62687;55.738;37.516;2023-02-04T05:12:44;71.97;66.86;76.30;;
74292;Laerm;62687;55.738;37.516;2023-02-04T05:15:28;72.56;67.32;77.28;;
74292;Laerm;62687;55.738;37.516;2023-02-04T05:18:12;73.02;69.22;78.66;;
74292;Laerm;62687;55.738;37.516;2023-02-04T05:20:56;72.33;67.46;77.44;;
74292;Laerm;62687;55.738;37.516;2023-02-04T05:23:40;72.45;68.00;82.48;;
74292;Laerm;62687;55.738;37.516;2023-02-04T05:26:23;73.21;67.91;77.33;;
74292;Laerm;62687;55.738;37.516;2023-02-04T05:29:08;72.96;68.02;76.88;;
74292;Laerm;62687;55.738;37.516;2023-02-04T05:31:53;72.87;67.84;76.67;;
74292;Laerm;62687;55.738;37.516;2023-02-04T05:34:37;72.62;68.08;77.19;;
74292;Laerm;62687;55.738;37.516;2023-02-04T05:37:21;72.87;68.56;79.63;;
74292;Laerm;62687;55.738;37.516;2023-02-04T05:40:05;73.82;68.42;82.20;;
74292;Laerm;62687;55.738;37.516;2023-02-04T05:42:49;73.31;68.94;78.78;;
74292;Laerm;62687;55.738;37.516;2023-02-04T05:45:33;74.30;69.47;81.46;;
74292;Laerm;62687;55.738;37.516;2023-02-04T05:48:17;73.73;68.69;84.96;;
74292;Laerm;62687;55.738;37.516;2023-02-04T05:51:01;73.14;68.70;82.37;;
74292;Laerm;62687;55.738;37.516;2023-02-04T05:53:45;73.40;68.85;80.92;;
74292;Laerm;62687;55.738;37.516;2023-02-04T05:56:29;73.42;67.37;79.78;;
74292;Laerm;62687;55.738;37.516;2023-02-04T05:59:13;73.35;68.99;79.90;;
74292;Laerm;62687;55.738;37.516;2023-02-04T06:01:59;73.30;68.81;80.83;;
74292;Laerm;62687;55.738;37.516;2023-02-04T06:04:43;72.54;67.94;76.74;;
74292;Laerm;62687;55.738;37.516;2023-02-04T06:07:27;73.02;67.87;77.90;;
74292;Laerm;62687;55.738;37.516;2023-02-04T06:10:11;73.34;66.61;79.25;;
74292;Laerm;62687;55.738;37.516;2023-02-04T06:12:56;73.39;68.48;78.36;;
74292;Laerm;62687;55.738;37.516;2023-02-04T06:15:40;73.44;67.19;81.83;;
74292;Laerm;62687;55.738;37.516;2023-02-04T06:18:26;73.41;68.20;82.42;;
74292;Laerm;62687;55.738;37.516;2023-02-04T06:21:10;73.15;66.40;82.24;;
74292;Laerm;62687;55.738;37.516;2023-02-04T06:23:54;74.02;70.34;78.47;;
74292;Laerm;62687;55.738;37.516;2023-02-04T06:26:38;73.25;69.02;76.90;;
74292;Laerm;62687;55.738;37.516;2023-02-04T06:29:22;73.43;68.66;78.93;;
74292;Laerm;62687;55.738;37.516;2023-02-04T06:32:07;73.66;68.87;82.25;;
74292;Laerm;62687;55.738;37.516;2023-02-04T06:34:53;73.78;69.60;82.81;;
74292;Laerm;62687;55.738;37.516;2023-02-04T06:37:38;73.45;68.76;79.49;;
74292;Laerm;62687;55.738;37.516;2023-02-04T06:40:22;73.50;69.36;79.23;;
74292;Laerm;62687;55.738;37.516;2023-02-04T06:43:06;73.42;69.43;80.87;;
74292;Laerm;62687;55.738;37.516;2023-02-04T06:45:50;73.35;69.09;77.11;;
74292;Laerm;62687;55.738;37.516;2023-02-04T06:48:35;73.09;69.35;84.37;;
74292;Laerm;62687;55.738;37.516;2023-02-04T06:51:19;73.52;68.24;78.78;;
74292;Laerm;62687;55.738;37.516;2023-02-04T06:54:03;73.74;69.41;77.76;;
74292;Laerm;62687;55.738;37.516;2023-02-04T06:56:47;74.76;68.89;89.46;;
74292;Laerm;62687;55.738;37.516;2023-02-04T06:59:36;73.76;68.32;77.45;;
74292;Laerm;62687;55.738;37.516;2023-02-04T07:02:20;73.70;69.80;78.96;;
74292;Laerm;62687;55.738;37.516;2023-02-04T07:05:04;73.39;69.39;79.63;;
74292;Laerm;62687;55.738;37.516;2023-02-04T07:07:49;73.24;69.20;76.94;;
74292;Laerm;62687;55.738;37.516;2023-02-04T07:10:33;73.49;69.65;80.35;;
74292;Laerm;62687;55.738;37.516;2023-02-04T07:13:17;73.54;69.35;77.43;;
74292;Laerm;62687;55.738;37.516;2023-02-04T07:16:01;74.06;69.90;82.02;;
74292;Laerm;62687;55.738;37.516;2023-02-04T07:18:45;73.87;69.90;77.67;;
74292;Laerm;62687;55.738;37.516;2023-02-04T07:21:29;73.91;69.50;81.93;;
74292;Laerm;62687;55.738;37.516;2023-02-04T07:24:13;73.70;69.81;80.32;;
74292;Laerm;62687;55.738;37.516;2023-02-04T07:27:00;73.45;69.30;76.97;;
74292;Laerm;62687;55.738;37.516;2023-02-04T07:29:44;73.88;69.79;81.16;;
74292;Laerm;62687;55.738;37.516;2023-02-04T07:32:28;73.93;68.84;91.91;;
74292;Laerm;62687;55.738;37.516;2023-02-04T07:35:15;73.68;69.27;84.86;;
74292;Laerm;62687;55.738;37.516;2023-02-04T07:38:00;73.47;69.42;77.57;;
74292;Laerm;62687;55.738;37.516;2023-02-04T07:40:44;74.08;69.58;78.54;;
74292;Laerm;62687;55.738;37.516;2023-02-04T07:43:29;73.86;70.41;85.09;;
74292;Laerm;62687;55.738;37.516;2023-02-04T07:46:13;74.35;70.58;88.04;;
74292;Laerm;62687;55.738;37.516;2023-02-04T07:48:57;73.72;69.61;77.22;;
74292;Laerm;62687;55.738;37.516;2023-02-04T07:51:41;73.54;69.21;77.79;;
74292;Laerm;62687;55.738;37.516;2023-02-04T07:54:25;73.56;70.09;77.02;;
74292;Laerm;62687;55.738;37.516;2023-02-04T07:57:09;73.93;70.55;77.36;;
74292;Laerm;62687;55.738;37.516;2023-02-04T07:59:53;73.49;69.74;77.43;;
74292;Laerm;62687;55.738;37.516;2023-02-04T08:02:37;73.99;70.24;81.26;;
74292;Laerm;62687;55.738;37.516;2023-02-04T08:05:21;73.53;69.16;77.49;;
74292;Laerm;62687;55.738;37.516;2023-02-04T08:08:05;74.11;68.92;79.51;;
74292;Laerm;62687;55.738;37.516;2023-02-04T08:10:49;73.51;68.50;77.20;;
74292;Laerm;62687;55.738;37.516;2023-02-04T08:13:32;73.67;69.71;77.18;;
74292;Laerm;62687;55.738;37.516;2023-02-04T08:16:17;74.25;69.84;84.35;;
74292;Laerm;62687;55.738;37.516;2023-02-04T08:19:00;73.72;70.05;77.53;;
74292;Laerm;62687;55.738;37.516;2023-02-04T08:21:44;74.17;70.23;79.35;;
74292;Laerm;62687;55.738;37.516;2023-02-04T08:24:28;74.14;70.55;77.76;;
74292;Laerm;62687;55.738;37.516;2023-02-04T08:27:12;73.79;69.55;77.73;;
74292;Laerm;62687;55.738;37.516;2023-02-04T08:29:57;73.78;69.70;77.61;;
74292;Laerm;62687;55.738;37.516;2023-02-04T08:32:41;74.10;70.09;78.76;;
74292;Laerm;62687;55.738;37.516;2023-02-04T08:35:25;73.98;69.91;77.73;;
74292;Laerm;62687;55.738;37.516;2023-02-04T08:38:09;75.02;69.08;87.52;;
74292;Laerm;62687;55.738;37.516;2023-02-04T08:40:53;74.60;70.08;86.86;;
74292;Laerm;62687;55.738;37.516;2023-02-04T08:43:37;74.42;70.65;80.52;;
74292;Laerm;62687;55.738;37.516;2023-02-04T08:46:21;73.84;70.02;81.76;;
74292;Laerm;62687;55.738;37.516;2023-02-04T08:49:05;74.36;69.32;88.97;;
74292;Laerm;62687;55.738;37.516;2023-02-04T08:51:49;73.88;69.51;78.59;;
74292;Laerm;62687;55.738;37.516;2023-02-04T08:54:34;73.64;69.26;77.49;;
74292;Laerm;62687;55.738;37.516;2023-02-04T08:57:18;74.54;70.80;78.58;;
74292;Laerm;62687;55.738;37.516;2023-02-04T09:02:30;73.68;69.68;84.41;;
74292;Laerm;62687;55.738;37.516;2023-02-04T09:05:14;73.78;70.26;77.25;;
74292;Laerm;62687;55.738;37.516;2023-02-04T09:07:59;73.89;70.81;81.98;;
74292;Laerm;62687;55.738;37.516;2023-02-04T09:10:43;74.02;70.32;77.55;;
74292;Laerm;62687;55.738;37.516;2023-02-04T09:13:27;74.02;69.65;79.13;;
74292;Laerm;62687;55.738;37.516;2023-02-04T09:16:11;73.84;70.18;82.64;;
74292;Laerm;62687;55.738;37.516;2023-02-04T09:18:55;73.84;69.88;80.52;;
74292;Laerm;62687;55.738;37.516;2023-02-04T09:21:41;73.54;69.87;77.78;;
74292;Laerm;62687;55.738;37.516;2023-02-04T09:24:25;73.91;70.45;77.75;;
74292;Laerm;62687;55.738;37.516;2023-02-04T09:27:09;73.87;70.03;78.26;;
74292;Laerm;62687;55.738;37.516;2023-02-04T09:29:54;74.02;70.37;77.51;;
74292;Laerm;62687;55.738;37.516;2023-02-04T09:32:38;73.63;70.52;77.14;;
74292;Laerm;62687;55.738;37.516;2023-02-04T09:35:22;74.19;70.08;80.55;;
74292;Laerm;62687;55.738;37.516;2023-02-04T09:38:07;73.95;68.51;80.48;;
74292;Laerm;62687;55.738;37.516;2023-02-04T09:41:10;74.00;69.93;77.60;;
74292;Laerm;62687;55.738;37.516;2023-02-04T09:43:55;73.99;70.09;85.87;;
74292;Laerm;62687;55.738;37.516;2023-02-04T09:46:41;74.19;70.30;82.63;;
74292;Laerm;62687;55.738;37.516;2023-02-04T09:49:26;74.13;70.09;81.90;;
74292;Laerm;62687;55.738;37.516;2023-02-04T09:52:13;73.83;70.55;78.43;;
74292;Laerm;62687;55.738;37.516;2023-02-04T09:54:58;73.34;68.69;82.29;;
74292;Laerm;62687;55.738;37.516;2023-02-04T09:57:43;74.09;70.11;81.69;;
74292;Laerm;62687;55.738;37.516;2023-02-04T10:00:29;73.86;70.35;76.93;;
74292;Laerm;62687;55.738;37.516;2023-02-04T10:05:44;73.69;70.32;77.33;;
74292;Laerm;62687;55.738;37.516;2023-02-04T10:08:30;73.76;69.76;79.60;;
74292;Laerm;62687;55.738;37.516;2023-02-04T10:11:17;73.97;69.72;77.53;;
74292;Laerm;62687;55.738;37.516;2023-02-04T10:14:02;73.78;69.79;77.12;;
74292;Laerm;62687;55.738;37.516;2023-02-04T10:16:58;74.20;68.84;95.01;;
74292;Laerm;62687;55.738;37.516;2023-02-04T10:19:44;72.33;68.32;77.42;;
74292;Laerm;62687;55.738;37.516;2023-02-04T10:22:29;73.79;69.91;84.23;;
74292;Laerm;62687;55.738;37.516;2023-02-04T10:25:15;72.91;69.22;76.61;;
74292;Laerm;62687;55.738;37.516;2023-02-04T10:28:00;74.05;70.23;77.80;;
74292;Laerm;62687;55.738;37.516;2023-02-04T10:30:44;73.99;69.85;86.59;;
74292;Laerm;62687;55.738;37.516;2023-02-04T10:33:30;73.32;68.43;80.00;;
74292;Laerm;62687;55.738;37.516;2023-02-04T10:36:15;73.85;69.80;76.98;;
74292;Laerm;62687;55.738;37.516;2023-02-04T10:39:10;74.24;69.87;84.15;;
74292;Laerm;62687;55.738;37.516;2023-02-04T10:41:59;73.73;69.89;77.64;;
74292;Laerm;62687;55.738;37.516;2023-02-04T10:44:46;74.15;67.73;80.85;;
74292;Laerm;62687;55.738;37.516;2023-02-04T10:47:30;73.67;70.28;79.55;;
74292;Laerm;62687;55.738;37.516;2023-02-04T10:50:19;73.71;68.31;77.78;;
74292;Laerm;62687;55.738;37.516;2023-02-04T10:53:04;74.05;70.24;78.39;;
74292;Laerm;62687;55.738;37.516;2023-02-04T10:56:19;73.56;69.29;77.31;;
74292;Laerm;62687;55.738;37.516;2023-02-04T10:59:04;73.81;70.36;77.39;;
74292;Laerm;62687;55.738;37.516;2023-02-04T11:01:48;73.35;69.42;77.34;;
74292;Laerm;62687;55.738;37.516;2023-02-04T11:04:32;73.18;68.80;77.11;;
74292;Laerm;62687;55.738;37.516;2023-02-04T11:07:16;73.32;69.42;82.61;;
74292;Laerm;62687;55.738;37.516;2023-02-04T11:10:00;73.15;69.23;79.32;;
74292;Laerm;62687;55.738;37.516;2023-02-04T11:13:05;73.30;68.43;81.33;;
74292;Laerm;62687;55.738;37.516;2023-02-04T11:16:05;73.63;69.04;79.28;;
74292;Laerm;62687;55.738;37.516;2023-02-04T11:22:43;73.66;70.03;77.62;;
74292;Laerm;62687;55.738;37.516;2023-02-04T11:25:33;74.15;69.92;88.13;;
74292;Laerm;62687;55.738;37.516;2023-02-04T11:28:25;74.26;70.80;78.12;;
74292;Laerm;62687;55.738;37.516;2023-02-04T11:34:09;74.08;69.94;78.38;;
74292;Laerm;62687;55.738;37.516;2023-02-04T11:39:47;74.11;68.85;85.00;;
74292;Laerm;62687;55.738;37.516;2023-02-04T11:42:41;73.38;69.59;76.94;;
74292;Laerm;62687;55.738;37.516;2023-02-04T11:45:31;73.02;69.25;77.87;;
74292;Laerm;62687;55.738;37.516;2023-02-04T11:48:19;73.92;69.98;84.16;;
74292;Laerm;62687;55.738;37.516;2023-02-04T11:51:11;73.63;70.33;77.39;;
74292;Laerm;62687;55.738;37.516;2023-02-04T11:53:57;73.96;70.16;77.78;;
74292;Laerm;62687;55.738;37.516;2023-02-04T11:56:41;73.92;70.01;78.56;;
74292;Laerm;62687;55.738;37.516;2023-02-04T11:59:25;74.57;70.39;86.82;;
74292;Laerm;62687;55.738;37.516;2023-02-04T12:05:16;73.73;69.31;77.39;;
74292;Laerm;62687;55.738;37.516;2023-02-04T12:08:10;73.87;69.60;79.91;;
74292;Laerm;62687;55.738;37.516;2023-02-04T12:11:08;73.76;69.94;80.04;;
74292;Laerm;62687;55.738;37.516;2023-02-04T12:13:55;73.53;69.56;77.23;;
74292;Laerm;62687;55.738;37.516;2023-02-04T12:16:50;73.89;69.52;82.07;;
74292;Laerm;62687;55.738;37.516;2023-02-04T12:19:34;74.36;70.57;81.61;;
74292;Laerm;62687;55.738;37.516;2023-02-04T12:22:18;73.40;69.70;79.50;;
74292;Laerm;62687;55.738;37.516;2023-02-04T12:25:02;73.77;70.45;79.59;;
74292;Laerm;62687;55.738;37.516;2023-02-04T12:27:47;73.13;69.06;76.84;;
74292;Laerm;62687;55.738;37.516;2023-02-04T12:30:31;73.54;70.22;80.95;;
74292;Laerm;62687;55.738;37.516;2023-02-04T12:33:15;73.57;69.92;76.82;;
74292;Laerm;62687;55.738;37.516;2023-02-04T12:35:58;74.10;70.32;77.96;;
74292;Laerm;62687;55.738;37.516;2023-02-04T12:38:42;72.77;69.68;82.82;;
74292;Laerm;62687;55.738;37.516;2023-02-04T12:41:26;74.00;70.42;79.84;;
74292;Laerm;62687;55.738;37.516;2023-02-04T12:44:11;73.79;69.47;78.15;;
74292;Laerm;62687;55.738;37.516;2023-02-04T12:46:55;73.59;69.79;77.28;;
74292;Laerm;62687;55.738;37.516;2023-02-04T12:49:39;73.07;68.80;77.09;;
74292;Laerm;62687;55.738;37.516;2023-02-04T12:52:23;73.55;69.90;77.65;;
74292;Laerm;62687;55.738;37.516;2023-02-04T12:55:08;73.65;70.01;79.73;;
74292;Laerm;62687;55.738;37.516;2023-02-04T12:57:52;73.24;69.60;81.69;;
74292;Laerm;62687;55.738;37.516;2023-02-04T13:00:37;73.43;69.48;77.86;;
74292;Laerm;62687;55.738;37.516;2023-02-04T13:03:21;73.43;69.72;78.37;;
74292;Laerm;62687;55.738;37.516;2023-02-04T13:06:07;73.57;69.99;78.78;;
74292;Laerm;62687;55.738;37.516;2023-02-04T13:08:51;73.48;69.83;82.98;;
74292;Laerm;62687;55.738;37.516;2023-02-04T13:11:35;73.54;69.46;80.36;;
74292;Laerm;62687;55.738;37.516;2023-02-04T13:14:19;73.10;69.13;83.50;;
74292;Laerm;62687;55.738;37.516;2023-02-04T13:17:03;73.57;69.78;77.64;;
74292;Laerm;62687;55.738;37.516;2023-02-04T13:19:47;74.10;70.21;82.01;;
74292;Laerm;62687;55.738;37.516;2023-02-04T13:22:31;73.73;70.41;77.23;;
74292;Laerm;62687;55.738;37.516;2023-02-04T13:25:15;73.45;69.39;77.16;;
74292;Laerm;62687;55.738;37.516;2023-02-04T13:27:59;72.98;69.10;78.38;;
74292;Laerm;62687;55.738;37.516;2023-02-04T13:30:43;73.55;69.38;80.38;;
74292;Laerm;62687;55.738;37.516;2023-02-04T13:33:27;73.38;69.67;76.92;;
74292;Laerm;62687;55.738;37.516;2023-02-04T13:36:12;73.50;69.61;77.09;;
74292;Laerm;62687;55.738;37.516;2023-02-04T13:38:56;73.66;69.65;83.68;;
74292;Laerm;62687;55.738;37.516;2023-02-04T13:41:42;73.44;69.40;82.70;;
74292;Laerm;62687;55.738;37.516;2023-02-04T13:44:27;73.11;68.93;77.09;;
74292;Laerm;62687;55.738;37.516;2023-02-04T13:47:11;73.64;69.18;78.63;;
74292;Laerm;62687;55.738;37.516;2023-02-04T13:49:55;73.59;70.01;78.11;;
74292;Laerm;62687;55.738;37.516;2023-02-04T13:52:40;73.20;69.46;80.58;;
74292;Laerm;62687;55.738;37.516;2023-02-04T13:55:27;72.99;69.20;84.32;;
74292;Laerm;62687;55.738;37.516;2023-02-04T13:58:11;73.35;69.86;86.21;;
74292;Laerm;62687;55.738;37.516;2023-02-04T14:00:54;73.42;69.65;78.33;;
74292;Laerm;62687;55.738;37.516;2023-02-04T14:03:40;73.30;69.17;80.44;;
74292;Laerm;62687;55.738;37.516;2023-02-04T14:06:25;73.25;68.18;81.50;;
74292;Laerm;62687;55.738;37.516;2023-02-04T14:09:15;73.44;69.78;77.83;;
74292;Laerm;62687;55.738;37.516;2023-02-04T14:12:00;73.18;70.12;76.89;;
74292;Laerm;62687;55.738;37.516;2023-02-04T14:14:44;73.32;68.93;78.32;;
74292;Laerm;62687;55.738;37.516;2023-02-04T14:17:28;73.13;68.96;79.29;;
74292;Laerm;62687;55.738;37.516;2023-02-04T14:20:12;73.00;69.43;82.93;;
74292;Laerm;62687;55.738;37.516;2023-02-04T14:22:56;73.18;68.34;77.22;;
74292;Laerm;62687;55.738;37.516;2023-02-04T14:25:41;73.68;69.35;83.54;;
74292;Laerm;62687;55.738;37.516;2023-02-04T14:28:25;72.94;68.58;76.55;;
74292;Laerm;62687;55.738;37.516;2023-02-04T14:31:09;73.54;68.98;86.17;;
74292;Laerm;62687;55.738;37.516;2023-02-04T14:33:53;73.04;69.02;76.47;;
74292;Laerm;62687;55.738;37.516;2023-02-04T14:36:38;72.83;68.40;77.40;;
74292;Laerm;62687;55.738;37.516;2023-02-04T14:39:23;72.64;68.29;81.21;;
74292;Laerm;62687;55.738;37.516;2023-02-04T14:42:07;73.02;69.66;76.46;;
74292;Laerm;62687;55.738;37.516;2023-02-04T14:44:50;72.85;66.52;76.22;;
74292;Laerm;62687;55.738;37.516;2023-02-04T14:47:35;73.11;69.02;76.75;;
74292;Laerm;62687;55.738;37.516;2023-02-04T14:50:20;72.85;69.01;76.50;;
74292;Laerm;62687;55.738;37.516;2023-02-04T14:53:09;73.04;69.09;76.92;;
74292;Laerm;62687;55.738;37.516;2023-02-04T14:55:53;73.06;68.30;77.04;;
74292;Laerm;62687;55.738;37.516;2023-02-04T14:58:37;72.81;68.79;77.44;;
74292;Laerm;62687;55.738;37.516;2023-02-04T15:01:21;72.22;68.17;75.28;;
74292;Laerm;62687;55.738;37.516;2023-02-04T15:04:05;72.76;69.24;80.30;;
74292;Laerm;62687;55.738;37.516;2023-02-04T15:06:49;73.08;69.13;77.17;;
74292;Laerm;62687;55.738;37.516;2023-02-04T15:09:36;72.90;69.13;76.42;;
74292;Laerm;62687;55.738;37.516;2023-02-04T15:12:20;73.44;69.10;77.55;;
74292;Laerm;62687;55.738;37.516;2023-02-04T15:15:05;72.88;68.67;77.89;;
74292;Laerm;62687;55.738;37.516;2023-02-04T15:17:49;72.64;68.89;76.48;;
74292;Laerm;62687;55.738;37.516;2023-02-04T15:20:33;73.00;69.23;77.17;;
74292;Laerm;62687;55.738;37.516;2023-02-04T15:23:17;72.43;67.98;76.98;;
74292;Laerm;62687;55.738;37.516;2023-02-04T15:26:01;72.50;68.80;77.46;;
74292;Laerm;62687;55.738;37.516;2023-02-04T15:28:46;72.07;67.72;76.72;;
74292;Laerm;62687;55.738;37.516;2023-02-04T15:31:33;72.27;68.22;80.65;;